Terminal Aerodrome Forecast
Issued by NWS

Home | Current Version | Previous Version | Text Only | Print | Product List | Glossary On
Versions: 1 2 3 4 5 6 7 8 9 10 11 12 13 14 15 16 17 18 19 20 21 22
000
FTPA31 PHFO 271700
TAFJHM
TAF
PHJH 271730Z 2718/2818 04013G21KT P6SM SCT030 SCT050
     FM272000 05022G30KT P6SM SCT030 SCT050
     FM280500 05016G24KT P6SM SCT030 SCT050
      AMD NOT SKED AFT 280400=

USA.gov is the U.S. government's official web portal to all federal, state and local government web resources and services.